SDM6345 ULLI-ULMM
Flight info
| Callsign | SDM6345 |
|---|---|
| Flight time | 1h 26m |
| Altitude | 37000 |
| Route | PETAP1C PETAP T457 LULOR/K0841F360 T693 ASGOR ASGOR2L |
| Aircraft | A319/M-SDE3FGHIRWY/LB1 |
Departure
| Time | 2026-04-25 20:20 |
|---|---|
| Airport | Pulkovo Airport (ULLI) |
Arrival
| Time | 2026-04-25 21:46 |
|---|---|
| Airport | Emperor Nicholas II Murmansk Airport (ULMM) |
| Time | Latitude | Longitude | Altitude | Speed | Heading |
|---|---|---|---|---|---|
| 2026-04-25 19:27 | 59.79814 | 30.26657 | 84 ft | 0 kts | 107° |
| 2026-04-25 19:57 | 59.79818 | 30.26632 | 92 ft | 4 kts | 98° |
| 2026-04-25 19:57 | 59.79817 | 30.26580 | 91 ft | 4 kts | 67° |
| 2026-04-25 19:57 | 59.79802 | 30.26539 | 92 ft | 4 kts | 35° |
| 2026-04-25 19:57 | 59.79779 | 30.26516 | 90 ft | 2 kts | 17° |
| 2026-04-25 19:58 | 59.79778 | 30.26515 | 89 ft | 0 kts | 17° |
| 2026-04-25 20:11 | 59.79781 | 30.26516 | 110 ft | 2 kts | 17° |
| 2026-04-25 20:11 | 59.79803 | 30.26529 | 82 ft | 5 kts | 17° |
| 2026-04-25 20:11 | 59.79845 | 30.26555 | 81 ft | 8 kts | 17° |
| 2026-04-25 20:11 | 59.79907 | 30.26592 | 81 ft | 10 kts | 17° |
| 2026-04-25 20:12 | 59.79966 | 30.26626 | 86 ft | 8 kts | 16° |
| 2026-04-25 20:12 | 59.80023 | 30.26660 | 82 ft | 10 kts | 17° |
| 2026-04-25 20:12 | 59.80096 | 30.26703 | 82 ft | 12 kts | 16° |
| 2026-04-25 20:12 | 59.80123 | 30.26719 | 82 ft | 12 kts | 16° |
| 2026-04-25 20:13 | 59.80237 | 30.26785 | 83 ft | 9 kts | 17° |
| 2026-04-25 20:13 | 59.80298 | 30.26822 | 81 ft | 9 kts | 17° |
| 2026-04-25 20:13 | 59.80350 | 30.26853 | 83 ft | 7 kts | 16° |
| 2026-04-25 20:13 | 59.80386 | 30.26889 | 81 ft | 5 kts | 56° |
| 2026-04-25 20:14 | 59.80381 | 30.26960 | 81 ft | 7 kts | 107° |
| 2026-04-25 20:14 | 59.80363 | 30.27078 | 81 ft | 11 kts | 107° |
| 2026-04-25 20:14 | 59.80332 | 30.27284 | 81 ft | 17 kts | 106° |
| 2026-04-25 20:14 | 59.80300 | 30.27498 | 83 ft | 15 kts | 107° |
| 2026-04-25 20:15 | 59.80272 | 30.27688 | 83 ft | 13 kts | 107° |
| 2026-04-25 20:15 | 59.80254 | 30.27804 | 81 ft | 13 kts | 107° |
| 2026-04-25 20:15 | 59.80216 | 30.28058 | 83 ft | 17 kts | 107° |
| 2026-04-25 20:15 | 59.80180 | 30.28297 | 80 ft | 19 kts | 107° |
| 2026-04-25 20:16 | 59.80142 | 30.28557 | 76 ft | 19 kts | 106° |
| 2026-04-25 20:16 | 59.80107 | 30.28794 | 78 ft | 17 kts | 107° |
| 2026-04-25 20:16 | 59.80085 | 30.28940 | 76 ft | 16 kts | 106° |
| 2026-04-25 20:16 | 59.80055 | 30.29136 | 73 ft | 14 kts | 106° |
| 2026-04-25 20:17 | 59.80024 | 30.29345 | 73 ft | 17 kts | 106° |
| 2026-04-25 20:17 | 59.79991 | 30.29565 | 77 ft | 16 kts | 107° |
| 2026-04-25 20:17 | 59.79963 | 30.29757 | 74 ft | 13 kts | 107° |
| 2026-04-25 20:17 | 59.79939 | 30.29914 | 68 ft | 11 kts | 106° |
| 2026-04-25 20:18 | 59.79944 | 30.30033 | 68 ft | 7 kts | 59° |
| 2026-04-25 20:18 | 59.79978 | 30.30111 | 75 ft | 8 kts | 48° |
| 2026-04-25 20:18 | 59.80020 | 30.30203 | 75 ft | 10 kts | 47° |
| 2026-04-25 20:18 | 59.80068 | 30.30288 | 73 ft | 8 kts | 26° |
| 2026-04-25 20:19 | 59.80111 | 30.30285 | 71 ft | 5 kts | 328° |
| 2026-04-25 20:19 | 59.80120 | 30.30241 | 70 ft | 2 kts | 287° |
| 2026-04-25 20:19 | 59.80122 | 30.30228 | 71 ft | 1 kts | 287° |
| 2026-04-25 20:19 | 59.80162 | 30.29963 | 73 ft | 52 kts | 287° |
| 2026-04-25 20:20 | 59.80331 | 30.28833 | 78 ft | 116 kts | 287° |
| 2026-04-25 20:20 | 59.80611 | 30.26950 | 107 ft | 163 kts | 285° |
| 2026-04-25 20:20 | 59.80930 | 30.24862 | 794 ft | 154 kts | 286° |
| 2026-04-25 20:20 | 59.81268 | 30.22820 | 1411 ft | 158 kts | 286° |
| 2026-04-25 20:21 | 59.81593 | 30.20713 | 2053 ft | 160 kts | 284° |
| 2026-04-25 20:21 | 59.81939 | 30.18606 | 2691 ft | 163 kts | 295° |
| 2026-04-25 20:21 | 59.82755 | 30.17032 | 3252 ft | 172 kts | 333° |
| 2026-04-25 20:21 | 59.83952 | 30.16244 | 3626 ft | 191 kts | 339° |
| 2026-04-25 20:22 | 59.85280 | 30.15315 | 3908 ft | 214 kts | 337° |
| 2026-04-25 20:22 | 59.86246 | 30.14615 | 4091 ft | 231 kts | 337° |
| 2026-04-25 20:22 | 59.88411 | 30.13039 | 4651 ft | 263 kts | 337° |
| 2026-04-25 20:22 | 59.90176 | 30.11768 | 5384 ft | 274 kts | 337° |
| 2026-04-25 20:23 | 59.91991 | 30.10469 | 6255 ft | 280 kts | 337° |
| 2026-04-25 20:23 | 59.93836 | 30.09154 | 7135 ft | 284 kts | 337° |
| 2026-04-25 20:23 | 59.95711 | 30.07816 | 8021 ft | 288 kts | 337° |
| 2026-04-25 20:23 | 59.97612 | 30.06452 | 8910 ft | 292 kts | 337° |
| 2026-04-25 20:24 | 59.99545 | 30.05067 | 9624 ft | 302 kts | 337° |
| 2026-04-25 20:24 | 60.01573 | 30.03611 | 9906 ft | 325 kts | 338° |
| 2026-04-25 20:24 | 60.03748 | 30.02049 | 10458 ft | 337 kts | 338° |
| 2026-04-25 20:24 | 60.05973 | 30.00459 | 11219 ft | 342 kts | 338° |
| 2026-04-25 20:25 | 60.08226 | 29.98843 | 12014 ft | 346 kts | 337° |
| 2026-04-25 20:25 | 60.10504 | 29.97204 | 12801 ft | 350 kts | 337° |
| 2026-04-25 20:25 | 60.12808 | 29.95547 | 13525 ft | 354 kts | 337° |
| 2026-04-25 20:25 | 60.15133 | 29.93874 | 14289 ft | 356 kts | 338° |
| 2026-04-25 20:26 | 60.17472 | 29.92184 | 14988 ft | 359 kts | 337° |
| 2026-04-25 20:26 | 60.19836 | 29.90465 | 15644 ft | 364 kts | 337° |
| 2026-04-25 20:26 | 60.22227 | 29.88719 | 16287 ft | 368 kts | 337° |
| 2026-04-25 20:26 | 60.24656 | 29.86947 | 16944 ft | 373 kts | 337° |
| 2026-04-25 20:27 | 60.27107 | 29.85159 | 17590 ft | 378 kts | 337° |
| 2026-04-25 20:27 | 60.29609 | 29.83400 | 18146 ft | 383 kts | 341° |
| 2026-04-25 20:27 | 60.32247 | 29.82409 | 18724 ft | 390 kts | 353° |
| 2026-04-25 20:27 | 60.34978 | 29.82448 | 19311 ft | 396 kts | 5° |
| 2026-04-25 20:28 | 60.37698 | 29.83546 | 19891 ft | 401 kts | 16° |
| 2026-04-25 20:28 | 60.40320 | 29.85573 | 20454 ft | 406 kts | 22° |
| 2026-04-25 20:28 | 60.42937 | 29.87766 | 21018 ft | 409 kts | 22° |
| 2026-04-25 20:28 | 60.45582 | 29.89995 | 21587 ft | 413 kts | 22° |
| 2026-04-25 20:29 | 60.48250 | 29.92244 | 22154 ft | 417 kts | 22° |
| 2026-04-25 20:29 | 60.50941 | 29.94510 | 22708 ft | 421 kts | 22° |
| 2026-04-25 20:29 | 60.53658 | 29.96806 | 23184 ft | 425 kts | 22° |
| 2026-04-25 20:29 | 60.56391 | 29.99117 | 23648 ft | 427 kts | 22° |
| 2026-04-25 20:30 | 60.59146 | 30.01449 | 24109 ft | 430 kts | 22° |
| 2026-04-25 20:30 | 60.61879 | 30.03768 | 24555 ft | 432 kts | 22° |
| 2026-04-25 20:30 | 60.64670 | 30.06143 | 25000 ft | 435 kts | 22° |
| 2026-04-25 20:30 | 60.67469 | 30.08526 | 25457 ft | 437 kts | 22° |
| 2026-04-25 20:31 | 60.70277 | 30.10923 | 25894 ft | 439 kts | 22° |
| 2026-04-25 20:31 | 60.73099 | 30.13338 | 26319 ft | 441 kts | 22° |
| 2026-04-25 20:31 | 60.75938 | 30.15779 | 26734 ft | 444 kts | 22° |
| 2026-04-25 20:31 | 60.78792 | 30.18243 | 27145 ft | 446 kts | 22° |
| 2026-04-25 20:32 | 60.81656 | 30.20722 | 27546 ft | 449 kts | 22° |
| 2026-04-25 20:32 | 60.84548 | 30.23221 | 27953 ft | 451 kts | 22° |
| 2026-04-25 20:32 | 60.87450 | 30.25730 | 28333 ft | 454 kts | 22° |
| 2026-04-25 20:32 | 60.90370 | 30.28256 | 28713 ft | 456 kts | 21° |
| 2026-04-25 20:33 | 60.93301 | 30.30799 | 29086 ft | 459 kts | 22° |
| 2026-04-25 20:33 | 60.96248 | 30.33366 | 29432 ft | 461 kts | 22° |
| 2026-04-25 20:33 | 60.99206 | 30.35943 | 29710 ft | 463 kts | 21° |
| 2026-04-25 20:33 | 61.01176 | 30.37662 | 29889 ft | 465 kts | 21° |
| 2026-04-25 20:34 | 61.05171 | 30.41153 | 30260 ft | 468 kts | 21° |
| 2026-04-25 20:34 | 61.08174 | 30.43781 | 30536 ft | 469 kts | 21° |
| 2026-04-25 20:34 | 61.11183 | 30.46419 | 30809 ft | 471 kts | 21° |
| 2026-04-25 20:34 | 61.14198 | 30.49073 | 31176 ft | 470 kts | 21° |
| 2026-04-25 20:35 | 61.17204 | 30.51729 | 31554 ft | 469 kts | 21° |
| 2026-04-25 20:35 | 61.20204 | 30.54382 | 31888 ft | 469 kts | 21° |
| 2026-04-25 20:35 | 61.23163 | 30.57007 | 32236 ft | 468 kts | 21° |
| 2026-04-25 20:35 | 61.26198 | 30.59711 | 32591 ft | 468 kts | 21° |
| 2026-04-25 20:36 | 61.29151 | 30.62347 | 32929 ft | 468 kts | 21° |
| 2026-04-25 20:36 | 61.32142 | 30.65022 | 33268 ft | 468 kts | 21° |
| 2026-04-25 20:36 | 61.35173 | 30.67721 | 33559 ft | 467 kts | 21° |
| 2026-04-25 20:36 | 61.38120 | 30.70346 | 33827 ft | 467 kts | 21° |
| 2026-04-25 20:37 | 61.41104 | 30.73018 | 34092 ft | 466 kts | 21° |
| 2026-04-25 20:37 | 61.44084 | 30.75703 | 34356 ft | 466 kts | 21° |
| 2026-04-25 20:37 | 61.47051 | 30.78382 | 34606 ft | 465 kts | 21° |
| 2026-04-25 20:37 | 61.50025 | 30.81065 | 34870 ft | 464 kts | 21° |
| 2026-04-25 20:38 | 61.52986 | 30.83738 | 35121 ft | 463 kts | 21° |
| 2026-04-25 20:38 | 61.55943 | 30.86418 | 35345 ft | 463 kts | 21° |
| 2026-04-25 20:38 | 61.58896 | 30.89097 | 35558 ft | 462 kts | 21° |
| 2026-04-25 20:38 | 61.61846 | 30.91780 | 35769 ft | 462 kts | 21° |
| 2026-04-25 20:39 | 61.64790 | 30.94466 | 35961 ft | 461 kts | 21° |
| 2026-04-25 20:39 | 61.67732 | 30.97155 | 36144 ft | 461 kts | 21° |
| 2026-04-25 20:39 | 61.70674 | 30.99847 | 36289 ft | 461 kts | 21° |
| 2026-04-25 20:39 | 61.72657 | 31.01669 | 36329 ft | 459 kts | 21° |
| 2026-04-25 20:40 | 61.79452 | 31.07914 | 36332 ft | 458 kts | 22° |
| 2026-04-25 20:40 | 61.85294 | 31.13301 | 36343 ft | 458 kts | 22° |
| 2026-04-25 20:41 | 61.91126 | 31.18732 | 36343 ft | 458 kts | 22° |
| 2026-04-25 20:41 | 61.96962 | 31.24173 | 36353 ft | 458 kts | 22° |
| 2026-04-25 20:42 | 62.02798 | 31.29629 | 36353 ft | 458 kts | 22° |
| 2026-04-25 20:42 | 62.08628 | 31.35129 | 36372 ft | 459 kts | 22° |
| 2026-04-25 20:43 | 62.14475 | 31.40645 | 36367 ft | 459 kts | 22° |
| 2026-04-25 20:43 | 62.20317 | 31.46179 | 36374 ft | 459 kts | 22° |
| 2026-04-25 20:44 | 62.26161 | 31.51748 | 36375 ft | 459 kts | 22° |
| 2026-04-25 20:44 | 62.31955 | 31.57287 | 36386 ft | 459 kts | 22° |
| 2026-04-25 20:45 | 62.37793 | 31.62899 | 36386 ft | 459 kts | 22° |
| 2026-04-25 20:45 | 62.43623 | 31.68520 | 36393 ft | 459 kts | 22° |
| 2026-04-25 20:46 | 62.49450 | 31.74176 | 36394 ft | 459 kts | 22° |
| 2026-04-25 20:46 | 62.55282 | 31.79843 | 36404 ft | 460 kts | 22° |
| 2026-04-25 20:47 | 62.61118 | 31.85533 | 36406 ft | 460 kts | 22° |
| 2026-04-25 20:47 | 62.66949 | 31.91249 | 36430 ft | 460 kts | 22° |
| 2026-04-25 20:48 | 62.72860 | 31.96502 | 36426 ft | 457 kts | 13° |
| 2026-04-25 20:48 | 62.79127 | 31.97973 | 36432 ft | 453 kts | 356° |
| 2026-04-25 20:49 | 62.85423 | 31.97644 | 36435 ft | 453 kts | 357° |
| 2026-04-25 20:49 | 62.91728 | 31.97365 | 36441 ft | 453 kts | 356° |
| 2026-04-25 20:50 | 62.98041 | 31.97093 | 36449 ft | 453 kts | 357° |
| 2026-04-25 20:50 | 63.04305 | 31.96809 | 36466 ft | 453 kts | 357° |
| 2026-04-25 20:51 | 63.10612 | 31.96510 | 36458 ft | 453 kts | 357° |
| 2026-04-25 20:51 | 63.16923 | 31.96214 | 36465 ft | 453 kts | 357° |
| 2026-04-25 20:52 | 63.22204 | 31.95956 | 36464 ft | 453 kts | 357° |
| 2026-04-25 20:52 | 63.29524 | 31.95597 | 36479 ft | 453 kts | 357° |
| 2026-04-25 20:53 | 63.35833 | 31.95418 | 36484 ft | 453 kts | 359° |
| 2026-04-25 20:53 | 63.42137 | 31.95735 | 36478 ft | 454 kts | 0° |
| 2026-04-25 20:54 | 63.48456 | 31.96188 | 36484 ft | 454 kts | 0° |
| 2026-04-25 20:54 | 63.54770 | 31.96581 | 36482 ft | 454 kts | 360° |
| 2026-04-25 20:55 | 63.61078 | 31.96884 | 36488 ft | 453 kts | 360° |
| 2026-04-25 20:55 | 63.67343 | 31.97163 | 36494 ft | 453 kts | 360° |
| 2026-04-25 20:56 | 63.73649 | 31.97452 | 36503 ft | 453 kts | 360° |
| 2026-04-25 20:56 | 63.79962 | 31.97771 | 36502 ft | 453 kts | 360° |
| 2026-04-25 20:57 | 63.86279 | 31.98108 | 36501 ft | 453 kts | 0° |
| 2026-04-25 20:57 | 63.92589 | 31.98450 | 36502 ft | 453 kts | 360° |
| 2026-04-25 20:58 | 63.98899 | 31.98779 | 36509 ft | 453 kts | 360° |
| 2026-04-25 20:58 | 64.05206 | 31.99103 | 36511 ft | 453 kts | 0° |
| 2026-04-25 20:59 | 64.11514 | 31.99425 | 36513 ft | 453 kts | 360° |
| 2026-04-25 20:59 | 64.17825 | 31.99750 | 36519 ft | 454 kts | 0° |
| 2026-04-25 21:00 | 64.22000 | 31.99967 | 36524 ft | 454 kts | 0° |
| 2026-04-25 21:01 | 64.33601 | 32.00605 | 36531 ft | 454 kts | 0° |
| 2026-04-25 21:01 | 64.39912 | 32.00933 | 36531 ft | 454 kts | 0° |
| 2026-04-25 21:02 | 64.46224 | 32.01267 | 36541 ft | 453 kts | 0° |
| 2026-04-25 21:02 | 64.52491 | 32.01597 | 36540 ft | 453 kts | 0° |
| 2026-04-25 21:03 | 64.58797 | 32.01940 | 36536 ft | 453 kts | 0° |
| 2026-04-25 21:03 | 64.65104 | 32.02290 | 36534 ft | 453 kts | 0° |
| 2026-04-25 21:04 | 64.71407 | 32.02626 | 36540 ft | 453 kts | 0° |
| 2026-04-25 21:04 | 64.76684 | 32.02906 | 36545 ft | 453 kts | 0° |
| 2026-04-25 21:05 | 64.82945 | 32.03255 | 36540 ft | 453 kts | 0° |
| 2026-04-25 21:05 | 64.89245 | 32.03623 | 36534 ft | 453 kts | 0° |
| 2026-04-25 21:06 | 64.95549 | 32.03976 | 36535 ft | 453 kts | 0° |
| 2026-04-25 21:06 | 65.01847 | 32.04322 | 36534 ft | 453 kts | 0° |
| 2026-04-25 21:07 | 65.08150 | 32.04660 | 36543 ft | 453 kts | 0° |
| 2026-04-25 21:07 | 65.14448 | 32.05016 | 36548 ft | 453 kts | 0° |
| 2026-04-25 21:08 | 65.20739 | 32.05385 | 36549 ft | 452 kts | 0° |
| 2026-04-25 21:08 | 65.27033 | 32.05736 | 36545 ft | 452 kts | 0° |
| 2026-04-25 21:09 | 65.36484 | 32.06271 | 36539 ft | 452 kts | 0° |
| 2026-04-25 21:09 | 65.42777 | 32.06625 | 36540 ft | 452 kts | 0° |
| 2026-04-25 21:10 | 65.49073 | 32.06982 | 36547 ft | 453 kts | 0° |
| 2026-04-25 21:10 | 65.55370 | 32.07364 | 36545 ft | 453 kts | 0° |
| 2026-04-25 21:11 | 65.61671 | 32.07695 | 36544 ft | 453 kts | 360° |
| 2026-04-25 21:11 | 65.67928 | 32.07978 | 36543 ft | 453 kts | 360° |
| 2026-04-25 21:12 | 65.74225 | 32.08272 | 36559 ft | 453 kts | 360° |
| 2026-04-25 21:12 | 65.79507 | 32.08514 | 36554 ft | 453 kts | 360° |
| 2026-04-25 21:13 | 65.86832 | 32.08849 | 36557 ft | 453 kts | 360° |
| 2026-04-25 21:13 | 65.93132 | 32.09143 | 36555 ft | 453 kts | 360° |
| 2026-04-25 21:14 | 65.99432 | 32.09438 | 36553 ft | 453 kts | 0° |
| 2026-04-25 21:14 | 66.05734 | 32.09771 | 36552 ft | 453 kts | 0° |
| 2026-04-25 21:15 | 66.12036 | 32.10092 | 36549 ft | 453 kts | 360° |
| 2026-04-25 21:15 | 66.18338 | 32.10394 | 36552 ft | 453 kts | 360° |
| 2026-04-25 21:16 | 66.24641 | 32.10699 | 36555 ft | 453 kts | 0° |
| 2026-04-25 21:16 | 66.30944 | 32.11013 | 36558 ft | 453 kts | 0° |
| 2026-04-25 21:17 | 66.37248 | 32.11303 | 36554 ft | 453 kts | 360° |
| 2026-04-25 21:17 | 66.43432 | 32.13507 | 36551 ft | 454 kts | 13° |
| 2026-04-25 21:18 | 66.49611 | 32.17306 | 36557 ft | 454 kts | 13° |
| 2026-04-25 21:18 | 66.55703 | 32.21044 | 36545 ft | 454 kts | 13° |
| 2026-04-25 21:19 | 66.61842 | 32.24798 | 36544 ft | 454 kts | 13° |
| 2026-04-25 21:19 | 66.67979 | 32.28595 | 36537 ft | 454 kts | 13° |
| 2026-04-25 21:20 | 66.73116 | 32.31799 | 36538 ft | 454 kts | 13° |
| 2026-04-25 21:20 | 66.80249 | 32.36264 | 36158 ft | 454 kts | 13° |
| 2026-04-25 21:21 | 66.83307 | 32.38185 | 35613 ft | 452 kts | 13° |
| 2026-04-25 21:21 | 66.86352 | 32.40105 | 35095 ft | 450 kts | 12° |
| 2026-04-25 21:21 | 66.89386 | 32.42022 | 34583 ft | 448 kts | 12° |
| 2026-04-25 21:21 | 66.92407 | 32.43935 | 34060 ft | 446 kts | 12° |
| 2026-04-25 21:22 | 66.95418 | 32.45845 | 33535 ft | 445 kts | 12° |
| 2026-04-25 21:22 | 66.98418 | 32.47751 | 32955 ft | 443 kts | 12° |
| 2026-04-25 21:22 | 67.01395 | 32.49645 | 32454 ft | 439 kts | 12° |
| 2026-04-25 21:22 | 67.04344 | 32.51536 | 31944 ft | 435 kts | 12° |
| 2026-04-25 21:23 | 67.07269 | 32.53414 | 31442 ft | 432 kts | 12° |
| 2026-04-25 21:23 | 67.10174 | 32.55279 | 30949 ft | 429 kts | 12° |
| 2026-04-25 21:23 | 67.13056 | 32.57137 | 30454 ft | 425 kts | 12° |
| 2026-04-25 21:23 | 67.15879 | 32.58958 | 29986 ft | 422 kts | 12° |
| 2026-04-25 21:24 | 67.18715 | 32.60791 | 29485 ft | 419 kts | 12° |
| 2026-04-25 21:24 | 67.21531 | 32.62614 | 28997 ft | 414 kts | 12° |
| 2026-04-25 21:24 | 67.24303 | 32.64417 | 28564 ft | 407 kts | 13° |
| 2026-04-25 21:24 | 67.27031 | 32.66199 | 28114 ft | 402 kts | 13° |
| 2026-04-25 21:25 | 67.29725 | 32.67961 | 27690 ft | 396 kts | 13° |
| 2026-04-25 21:25 | 67.32379 | 32.69701 | 27259 ft | 392 kts | 13° |
| 2026-04-25 21:25 | 67.35007 | 32.71427 | 26830 ft | 388 kts | 12° |
| 2026-04-25 21:25 | 67.37609 | 32.73135 | 26406 ft | 384 kts | 12° |
| 2026-04-25 21:26 | 67.40190 | 32.74833 | 25970 ft | 381 kts | 12° |
| 2026-04-25 21:26 | 67.42748 | 32.76526 | 25541 ft | 378 kts | 12° |
| 2026-04-25 21:26 | 67.45310 | 32.77992 | 25090 ft | 375 kts | 5° |
| 2026-04-25 21:26 | 67.47865 | 32.78270 | 24655 ft | 371 kts | 357° |
| 2026-04-25 21:27 | 67.50439 | 32.78142 | 24195 ft | 369 kts | 357° |
| 2026-04-25 21:27 | 67.53006 | 32.78035 | 23742 ft | 368 kts | 357° |
| 2026-04-25 21:27 | 67.55557 | 32.77948 | 23279 ft | 366 kts | 357° |
| 2026-04-25 21:27 | 67.58102 | 32.77865 | 22745 ft | 365 kts | 358° |
| 2026-04-25 21:28 | 67.60625 | 32.77783 | 22345 ft | 360 kts | 359° |
| 2026-04-25 21:28 | 67.63111 | 32.77699 | 21847 ft | 357 kts | 359° |
| 2026-04-25 21:28 | 67.65582 | 32.77606 | 21423 ft | 353 kts | 359° |
| 2026-04-25 21:28 | 67.68030 | 32.77508 | 20951 ft | 350 kts | 359° |
| 2026-04-25 21:29 | 67.70453 | 32.77410 | 20514 ft | 346 kts | 360° |
| 2026-04-25 21:29 | 67.72848 | 32.77315 | 20086 ft | 343 kts | 360° |
| 2026-04-25 21:29 | 67.75220 | 32.77223 | 19657 ft | 339 kts | 0° |
| 2026-04-25 21:29 | 67.77574 | 32.77131 | 19260 ft | 337 kts | 0° |
| 2026-04-25 21:30 | 67.79874 | 32.77037 | 18847 ft | 334 kts | 0° |
| 2026-04-25 21:30 | 67.82189 | 32.76940 | 18443 ft | 331 kts | 1° |
| 2026-04-25 21:30 | 67.84486 | 32.76847 | 18035 ft | 329 kts | 1° |
| 2026-04-25 21:30 | 67.86033 | 32.76785 | 17743 ft | 328 kts | 1° |
| 2026-04-25 21:31 | 67.89038 | 32.76674 | 17180 ft | 324 kts | 1° |
| 2026-04-25 21:31 | 67.91278 | 32.76594 | 16799 ft | 321 kts | 1° |
| 2026-04-25 21:31 | 67.93501 | 32.76513 | 16408 ft | 318 kts | 1° |
| 2026-04-25 21:31 | 67.95701 | 32.76429 | 16034 ft | 315 kts | 1° |
| 2026-04-25 21:32 | 67.97887 | 32.76337 | 15662 ft | 313 kts | 1° |
| 2026-04-25 21:32 | 68.00061 | 32.76255 | 15308 ft | 311 kts | 1° |
| 2026-04-25 21:32 | 68.02214 | 32.76211 | 14939 ft | 309 kts | 2° |
| 2026-04-25 21:32 | 68.04355 | 32.76190 | 14579 ft | 307 kts | 2° |
| 2026-04-25 21:33 | 68.06481 | 32.76180 | 14213 ft | 305 kts | 2° |
| 2026-04-25 21:33 | 68.08598 | 32.76169 | 13852 ft | 303 kts | 2° |
| 2026-04-25 21:33 | 68.10704 | 32.76149 | 13496 ft | 302 kts | 2° |
| 2026-04-25 21:33 | 68.12799 | 32.76117 | 13107 ft | 300 kts | 1° |
| 2026-04-25 21:34 | 68.14878 | 32.76077 | 12743 ft | 298 kts | 1° |
| 2026-04-25 21:34 | 68.16940 | 32.76039 | 12385 ft | 295 kts | 1° |
| 2026-04-25 21:34 | 68.18955 | 32.76004 | 12028 ft | 292 kts | 1° |
| 2026-04-25 21:34 | 68.20977 | 32.75972 | 11668 ft | 289 kts | 1° |
| 2026-04-25 21:35 | 68.22981 | 32.75942 | 11307 ft | 287 kts | 1° |
| 2026-04-25 21:35 | 68.24967 | 32.75914 | 10957 ft | 284 kts | 1° |
| 2026-04-25 21:35 | 68.26939 | 32.75885 | 10591 ft | 282 kts | 1° |
| 2026-04-25 21:35 | 68.28894 | 32.75858 | 10233 ft | 280 kts | 1° |
| 2026-04-25 21:36 | 68.30839 | 32.75831 | 9927 ft | 277 kts | 1° |
| 2026-04-25 21:36 | 68.32755 | 32.75795 | 9559 ft | 276 kts | 1° |
| 2026-04-25 21:36 | 68.34665 | 32.75756 | 9157 ft | 274 kts | 1° |
| 2026-04-25 21:36 | 68.36558 | 32.75717 | 8784 ft | 272 kts | 1° |
| 2026-04-25 21:37 | 68.38438 | 32.75688 | 8423 ft | 268 kts | 1° |
| 2026-04-25 21:37 | 68.39675 | 32.75671 | 8139 ft | 268 kts | 1° |
| 2026-04-25 21:37 | 68.42084 | 32.75632 | 7894 ft | 246 kts | 1° |
| 2026-04-25 21:37 | 68.43730 | 32.75687 | 7755 ft | 228 kts | 3° |
| 2026-04-25 21:38 | 68.45279 | 32.75852 | 7559 ft | 218 kts | 4° |
| 2026-04-25 21:38 | 68.46786 | 32.76044 | 7104 ft | 216 kts | 4° |
| 2026-04-25 21:38 | 68.48284 | 32.76238 | 6613 ft | 215 kts | 4° |
| 2026-04-25 21:38 | 68.49771 | 32.76417 | 6228 ft | 212 kts | 3° |
| 2026-04-25 21:39 | 68.51241 | 32.76586 | 6029 ft | 212 kts | 3° |
| 2026-04-25 21:39 | 68.52674 | 32.76814 | 5844 ft | 204 kts | 5° |
| 2026-04-25 21:39 | 68.54076 | 32.77148 | 5573 ft | 200 kts | 6° |
| 2026-04-25 21:39 | 68.55455 | 32.77508 | 5328 ft | 198 kts | 6° |
| 2026-04-25 21:40 | 68.56809 | 32.78090 | 5097 ft | 197 kts | 17° |
| 2026-04-25 21:40 | 68.58057 | 32.79557 | 4859 ft | 195 kts | 30° |
| 2026-04-25 21:40 | 68.59129 | 32.81832 | 4626 ft | 196 kts | 44° |
| 2026-04-25 21:40 | 68.59967 | 32.84770 | 4395 ft | 196 kts | 54° |
| 2026-04-25 21:41 | 68.60716 | 32.87878 | 4154 ft | 194 kts | 53° |
| 2026-04-25 21:41 | 68.61459 | 32.90939 | 3919 ft | 192 kts | 53° |
| 2026-04-25 21:41 | 68.62225 | 32.93906 | 3609 ft | 191 kts | 45° |
| 2026-04-25 21:41 | 68.63256 | 32.96095 | 3398 ft | 185 kts | 26° |
| 2026-04-25 21:42 | 68.64450 | 32.97152 | 3257 ft | 179 kts | 8° |
| 2026-04-25 21:42 | 68.65664 | 32.97087 | 3111 ft | 172 kts | 352° |
| 2026-04-25 21:42 | 68.66770 | 32.96020 | 2895 ft | 165 kts | 336° |
| 2026-04-25 21:42 | 68.67711 | 32.94346 | 2676 ft | 157 kts | 331° |
| 2026-04-25 21:43 | 68.68587 | 32.92744 | 2477 ft | 144 kts | 332° |
| 2026-04-25 21:43 | 68.69376 | 32.91299 | 2274 ft | 131 kts | 332° |
| 2026-04-25 21:43 | 68.70122 | 32.89938 | 2095 ft | 127 kts | 332° |
| 2026-04-25 21:43 | 68.70849 | 32.88608 | 1915 ft | 125 kts | 332° |
| 2026-04-25 21:44 | 68.71568 | 32.87291 | 1746 ft | 124 kts | 331° |
| 2026-04-25 21:44 | 68.72285 | 32.85973 | 1564 ft | 123 kts | 330° |
| 2026-04-25 21:44 | 68.73715 | 32.83335 | 1154 ft | 124 kts | 329° |
| 2026-04-25 21:45 | 68.74442 | 32.82024 | 961 ft | 126 kts | 328° |
| 2026-04-25 21:45 | 68.74681 | 32.81597 | 903 ft | 126 kts | 328° |
| 2026-04-25 21:45 | 68.75932 | 32.79308 | 618 ft | 130 kts | 327° |
| 2026-04-25 21:45 | 68.76686 | 32.77936 | 438 ft | 130 kts | 326° |
| 2026-04-25 21:46 | 68.77439 | 32.76550 | 293 ft | 129 kts | 325° |
| 2026-04-25 21:46 | 68.78090 | 32.75360 | 272 ft | 88 kts | 326° |
| 2026-04-25 21:46 | 68.78403 | 32.74778 | 276 ft | 23 kts | 327° |
| 2026-04-25 21:46 | 68.78495 | 32.74626 | 272 ft | 12 kts | 332° |
| 2026-04-25 21:47 | 68.78531 | 32.74519 | 272 ft | 7 kts | 303° |
| 2026-04-25 21:47 | 68.78549 | 32.74500 | 275 ft | 1 kts | 80° |
| 2026-04-25 21:47 | 68.78536 | 32.74536 | 272 ft | 5 kts | 144° |
| 2026-04-25 21:47 | 68.78505 | 32.74591 | 272 ft | 6 kts | 147° |
| 2026-04-25 21:48 | 68.78462 | 32.74666 | 272 ft | 8 kts | 147° |
| 2026-04-25 21:48 | 68.78423 | 32.74736 | 274 ft | 6 kts | 147° |
| 2026-04-25 21:48 | 68.78391 | 32.74793 | 274 ft | 6 kts | 147° |
| 2026-04-25 21:48 | 68.78353 | 32.74862 | 274 ft | 7 kts | 146° |
| 2026-04-25 21:49 | 68.78317 | 32.74930 | 276 ft | 6 kts | 146° |
| 2026-04-25 21:49 | 68.78288 | 32.75012 | 275 ft | 6 kts | 109° |
| 2026-04-25 21:49 | 68.78304 | 32.75107 | 275 ft | 5 kts | 55° |
| 2026-04-25 21:49 | 68.78324 | 32.75184 | 275 ft | 5 kts | 55° |
| 2026-04-25 21:50 | 68.78346 | 32.75275 | 275 ft | 6 kts | 56° |
| 2026-04-25 21:50 | 68.78372 | 32.75383 | 275 ft | 6 kts | 57° |
| 2026-04-25 21:50 | 68.78396 | 32.75483 | 275 ft | 7 kts | 57° |
| 2026-04-25 21:50 | 68.78413 | 32.75557 | 275 ft | 6 kts | 57° |
| 2026-04-25 21:51 | 68.78445 | 32.75617 | 275 ft | 4 kts | 357° |
| 2026-04-25 21:51 | 68.78472 | 32.75568 | 275 ft | 4 kts | 324° |
| 2026-04-25 21:51 | 68.78495 | 32.75574 | 275 ft | 3 kts | 35° |
| 2026-04-25 21:51 | 68.78499 | 32.75590 | 275 ft | 1 kts | 53° |
| 2026-04-25 21:52 | 68.78506 | 32.75617 | 280 ft | 2 kts | 56° |
| 2026-04-25 21:52 | 68.78512 | 32.75645 | 277 ft | 0 kts | 57° |